Time;durP1;ratioP1;P1;durP2;ratioP2;P2;SDS_P1;SDS_P2;PMS_P1;PMS_P2;Temp;Humidity;BMP_temperature;BMP_pressure;BME280_temperature;BME280_humidity;BME280_pressure;Samples;Min_cycle;Max_cycle;Signal;HPM_P1;HPM_P2
2022/06/05 00:01:13;;;;;;;6.15;3.58;;;16.50;99.90;;;;;;4988577;28;20029;-56
2022/06/05 00:04:14;;;;;;;5.90;3.65;;;16.50;99.90;;;;;;4983927;28;20574;-55
2022/06/05 00:07:00;;;;;;;14.30;4.38;;;16.50;99.90;;;;;;4985179;28;20866;-55
2022/06/05 00:10:04;;;;;;;14.32;4.60;;;16.50;99.90;;;;;;4986836;28;20609;-56
2022/06/05 00:12:55;;;;;;;10.10;5.30;;;16.50;99.90;;;;;;4969105;28;20050;-56
2022/06/05 00:15:22;;;;;;;9.23;4.55;;;16.30;99.90;;;;;;4964325;28;20316;-55
2022/06/05 00:17:49;;;;;;;6.60;4.00;;;16.30;99.90;;;;;;4964515;28;20042;-55
2022/06/05 00:20:17;;;;;;;12.32;5.45;;;16.30;99.90;;;;;;4965885;28;20381;-56
2022/06/05 00:22:44;;;;;;;5.47;4.13;;;16.30;99.90;;;;;;4969283;28;20583;-55
2022/06/05 00:25:11;;;;;;;5.85;3.63;;;16.30;99.90;;;;;;4970019;28;20046;-56
2022/06/05 00:27:40;;;;;;;10.80;4.18;;;16.30;99.90;;;;;;4985761;28;20547;-54
2022/06/05 00:30:12;;;;;;;8.40;3.85;;;16.30;99.90;;;;;;4973316;28;20598;-55
2022/06/05 00:32:44;;;;;;;6.88;4.18;;;16.30;99.90;;;;;;4971990;28;20057;-55
2022/06/05 00:35:17;;;;;;;9.93;4.15;;;16.30;99.90;;;;;;4968848;28;20045;-55
2022/06/05 00:38:08;;;;;;;12.38;3.47;;;16.30;99.90;;;;;;4966399;28;20616;-54
2022/06/05 00:41:13;;;;;;;6.13;3.72;;;16.30;99.90;;;;;;4990569;28;20056;-56
2022/06/05 00:43:41;;;;;;;11.50;4.43;;;16.30;99.90;;;;;;4989305;28;20327;-56
2022/06/05 00:46:09;;;;;;;13.15;4.82;;;16.30;99.90;;;;;;4990097;28;20045;-56
2022/06/05 00:48:36;;;;;;;6.68;4.38;;;16.30;99.90;;;;;;4987188;28;20048;-55
2022/06/05 00:51:03;;;;;;;6.30;3.92;;;16.20;99.90;;;;;;4989206;28;20292;-56
2022/06/05 00:53:31;;;;;;;9.57;4.68;;;16.20;99.90;;;;;;4989690;28;20049;-55
2022/06/05 00:55:58;;;;;;;6.40;4.10;;;16.20;99.90;;;;;;4990024;28;20345;-56
2022/06/05 00:58:24;;;;;;;6.70;3.80;;;16.10;99.90;;;;;;4992967;28;20590;-55
2022/06/05 01:00:54;;;;;;;7.43;4.15;;;16.10;99.90;;;;;;4989487;28;20036;-56
2022/06/05 01:03:23;;;;;;;7.25;4.60;;;16.10;99.90;;;;;;4986407;28;20047;-55
2022/06/05 01:05:51;;;;;;;13.10;4.15;;;16.00;99.90;;;;;;4989518;28;20524;-56
2022/06/05 01:08:18;;;;;;;13.63;4.57;;;16.00;99.90;;;;;;4988659;28;21247;-55
2022/06/05 01:11:09;;;;;;;14.13;6.40;;;16.00;99.90;;;;;;4987629;28;20144;-56
2022/06/05 01:14:09;;;;;;;13.88;4.20;;;15.90;99.90;;;;;;4985770;28;20237;-56
2022/06/05 01:16:57;;;;;;;10.55;4.93;;;15.80;99.90;;;;;;4984072;28;20534;-56
2022/06/05 01:19:36;;;;;;;;;;;15.80;99.90;;;;;;4973290;28;20037;-56
2022/06/05 01:22:21;;;;;;;11.77;4.68;;;15.80;99.90;;;;;;4969526;28;20485;-56
2022/06/05 01:25:17;;;;;;;8.60;3.58;;;15.80;99.90;;;;;;4970571;28;20046;-54
2022/06/05 01:27:52;;;;;;;13.05;3.67;;;15.90;99.90;;;;;;4969739;28;20539;-55
2022/06/05 01:30:22;;;;;;;11.57;4.38;;;15.90;99.90;;;;;;4971628;28;20102;-55
2022/06/05 01:32:53;;;;;;;9.32;4.18;;;15.90;99.90;;;;;;4968294;28;20041;-56
2022/06/05 01:35:38;;;;;;;11.43;3.72;;;16.00;99.90;;;;;;4982656;28;20191;-56
2022/06/05 01:38:29;;;;;;;20.10;4.25;;;16.00;99.90;;;;;;4970544;28;20041;-55
2022/06/05 01:41:00;;;;;;;12.45;3.63;;;16.10;99.90;;;;;;4987007;28;20535;-55
2022/06/05 01:43:34;;;;;;;15.25;4.20;;;16.00;99.90;;;;;;4988217;28;20044;-58
2022/06/05 01:46:16;;;;;;;11.63;4.55;;;16.10;99.90;;;;;;4988982;28;20075;-55
2022/06/05 01:49:04;;;;;;;12.27;4.47;;;16.00;99.90;;;;;;4986373;28;20148;-55
2022/06/05 01:51:48;;;;;;;10.65;3.95;;;16.10;99.90;;;;;;4989832;28;20048;-56
2022/06/05 01:54:22;;;;;;;11.25;3.92;;;16.10;99.90;;;;;;4988527;28;20243;-56
2022/06/05 01:56:53;;;;;;;12.90;4.30;;;16.00;99.90;;;;;;4988698;28;20814;-56
2022/06/05 01:59:23;;;;;;;8.73;3.45;;;16.00;99.90;;;;;;4992998;28;20567;-55
2022/06/05 02:01:56;;;;;;;14.07;4.97;;;16.00;99.90;;;;;;4987371;28;20345;-57
2022/06/05 02:04:38;;;;;;;16.45;3.95;;;16.00;99.90;;;;;;4990463;28;20044;-56
2022/06/05 02:07:21;;;;;;;18.70;4.38;;;16.00;99.90;;;;;;4985292;28;20086;-56
2022/06/05 02:10:07;;;;;;;13.88;4.22;;;16.00;99.90;;;;;;4988843;28;20037;-56
2022/06/05 02:12:36;;;;;;;18.35;3.35;;;16.00;99.90;;;;;;4968771;28;20041;-56
2022/06/05 02:15:03;;;;;;;13.45;4.75;;;15.90;99.90;;;;;;4968926;28;20041;-56
2022/06/05 02:17:31;;;;;;;14.73;3.97;;;15.90;99.90;;;;;;4978173;28;20159;-56
2022/06/05 02:19:59;;;;;;;11.65;3.55;;;15.90;99.90;;;;;;4983344;28;20057;-55
2022/06/05 02:22:33;;;;;;;12.70;3.88;;;15.80;99.90;;;;;;4968339;28;20096;-57
2022/06/05 02:25:00;;;;;;;10.18;3.40;;;15.90;99.90;;;;;;4970120;28;20029;-56
2022/06/05 02:27:27;;;;;;;10.35;3.78;;;15.80;99.90;;;;;;4970480;28;20215;-56
2022/06/05 02:29:56;;;;;;;10.13;4.78;;;15.80;99.90;;;;;;4960575;28;20055;-56
2022/06/05 02:32:31;;;;;;;14.15;4.00;;;15.80;99.90;;;;;;4980864;28;20373;-56
2022/06/05 02:35:28;;;;;;;7.13;2.92;;;15.80;99.90;;;;;;4970206;28;20732;-55
2022/06/05 02:38:23;;;;;;;10.03;3.27;;;15.80;99.90;;;;;;4971708;28;20053;-56
2022/06/05 02:41:06;;;;;;;10.27;4.05;;;15.80;99.90;;;;;;4971915;28;20690;-56
2022/06/05 02:43:33;;;;;;;10.18;4.38;;;15.80;99.90;;;;;;4986729;28;20601;-57
2022/06/05 02:46:15;;;;;;;10.70;4.63;;;15.80;99.90;;;;;;4981121;28;20041;-56
2022/06/05 02:48:59;;;;;;;7.63;3.40;;;15.80;99.90;;;;;;4985521;28;20045;-56
2022/06/05 02:51:33;;;;;;;9.65;3.53;;;15.70;99.90;;;;;;4986515;28;20436;-56
2022/06/05 02:54:01;;;;;;;9.05;3.95;;;15.70;99.90;;;;;;4987501;28;20834;-55
2022/06/05 02:56:30;;;;;;;14.57;4.45;;;15.70;99.90;;;;;;4988369;28;20049;-56
2022/06/05 02:59:00;;;;;;;11.63;3.83;;;15.70;99.90;;;;;;4991646;28;20044;-56
2022/06/05 03:04:14;;;;;;;10.50;3.30;;;15.60;99.90;;;;;;4985868;28;20542;-56
2022/06/05 03:06:42;;;;;;;9.85;4.35;;;15.50;99.90;;;;;;4989912;28;20193;-56
2022/06/05 03:09:09;;;;;;;13.40;3.78;;;15.50;99.90;;;;;;4985994;28;20560;-56
2022/06/05 03:11:40;;;;;;;14.48;4.35;;;15.40;99.90;;;;;;4988086;28;20049;-56
2022/06/05 03:14:08;;;;;;;13.20;4.97;;;15.40;99.90;;;;;;4986549;28;20041;-57
2022/06/05 03:16:35;;;;;;;7.68;3.50;;;15.30;99.90;;;;;;4985822;28;20443;-57
2022/06/05 03:19:03;;;;;;;14.15;4.00;;;15.30;99.90;;;;;;4983340;28;20102;-56
2022/06/05 03:21:35;;;;;;;12.40;4.03;;;15.30;99.90;;;;;;4974500;28;20052;-56
2022/06/05 03:24:04;;;;;;;11.15;4.50;;;15.20;99.90;;;;;;4987204;28;20110;-55
2022/06/05 03:26:32;;;;;;;12.00;4.00;;;15.20;99.90;;;;;;4988666;28;20585;-55
2022/06/05 03:28:59;;;;;;;8.15;3.75;;;15.20;99.90;;;;;;4990232;28;20607;-55
2022/06/05 03:31:26;;;;;;;6.13;3.53;;;15.10;99.90;;;;;;4981430;28;20036;-55
2022/06/05 03:33:54;;;;;;;10.80;3.85;;;15.10;99.90;;;;;;4983262;28;20209;-55
2022/06/05 03:36:21;;;;;;;7.25;3.25;;;15.10;99.90;;;;;;4987356;28;20041;-55
2022/06/05 03:38:48;;;;;;;7.68;3.40;;;15.10;99.90;;;;;;4985438;28;20136;-56
2022/06/05 03:41:17;;;;;;;7.85;3.75;;;15.10;99.90;;;;;;4986550;28;20171;-56
2022/06/05 03:43:44;;;;;;;7.43;3.67;;;15.10;99.90;;;;;;4987359;28;20048;-55
2022/06/05 03:46:14;;;;;;;14.55;4.60;;;15.10;99.90;;;;;;4991050;28;20036;-55
2022/06/05 03:48:42;;;;;;;8.40;4.13;;;15.10;99.90;;;;;;4982886;28;20037;-57
2022/06/05 03:51:18;;;;;;;11.80;4.28;;;15.10;99.90;;;;;;4990570;28;20029;-56
2022/06/05 03:53:46;;;;;;;6.00;3.35;;;15.10;99.90;;;;;;4985784;28;20419;-56
2022/06/05 03:56:17;;;;;;;11.65;3.90;;;15.10;99.90;;;;;;4986584;28;20508;-56
2022/06/05 03:58:44;;;;;;;11.02;4.20;;;15.10;99.90;;;;;;4984506;28;20084;-55
2022/06/05 04:01:13;;;;;;;13.85;4.20;;;15.10;99.90;;;;;;4982237;28;20122;-55
2022/06/05 04:03:40;;;;;;;11.27;4.45;;;15.00;99.90;;;;;;4984335;28;20348;-54
2022/06/05 04:06:20;;;;;;;16.98;5.78;;;15.00;99.90;;;;;;4985387;28;20148;-55
2022/06/05 04:08:49;;;;;;;16.15;8.10;;;15.10;99.90;;;;;;4983859;28;20045;-56
2022/06/05 04:11:18;;;;;;;20.27;13.70;;;15.10;99.90;;;;;;4984959;28;20151;-56
2022/06/05 04:13:46;;;;;;;59.70;13.88;;;15.20;99.90;;;;;;4986871;28;20578;-55
2022/06/05 04:16:19;;;;;;;25.25;13.25;;;15.30;99.90;;;;;;4987008;28;20045;-55
2022/06/05 04:18:48;;;;;;;20.42;13.05;;;15.40;99.90;;;;;;4989987;28;20152;-55
2022/06/05 04:21:19;;;;;;;24.88;13.70;;;15.50;99.90;;;;;;4969366;28;20385;-56
2022/06/05 04:23:46;;;;;;;24.30;14.60;;;15.60;99.90;;;;;;4967292;28;20041;-55
2022/06/05 04:26:16;;;;;;;24.95;14.07;;;15.70;99.90;;;;;;4982207;28;20392;-56
2022/06/05 04:28:43;;;;;;;24.55;15.98;;;15.80;99.90;;;;;;4968780;28;20052;-55
2022/06/05 04:31:44;;;;;;;28.70;15.52;;;15.90;99.90;;;;;;4977045;28;20033;-56
2022/06/05 04:34:15;;;;;;;24.38;16.48;;;15.90;99.90;;;;;;4982949;28;20088;-55
2022/06/05 04:36:43;;;;;;;30.25;16.25;;;16.10;99.90;;;;;;4964991;28;20033;-55
2022/06/05 04:39:10;;;;;;;24.38;16.23;;;16.20;99.90;;;;;;4977690;28;20056;-55
2022/06/05 04:41:38;;;;;;;26.60;15.82;;;16.30;99.90;;;;;;4989748;28;20781;-54
2022/06/05 04:44:07;;;;;;;23.58;15.27;;;16.30;99.90;;;;;;4986286;28;20955;-54
2022/06/05 04:46:35;;;;;;;29.92;13.48;;;16.40;99.90;;;;;;4968833;28;20049;-56
2022/06/05 04:49:04;;;;;;;19.30;12.50;;;16.50;99.90;;;;;;4985749;28;20037;-51
2022/06/05 04:51:31;;;;;;;21.27;10.93;;;16.60;99.90;;;;;;4988768;28;20052;-51
2022/06/05 04:54:01;;;;;;;25.58;11.55;;;16.70;99.90;;;;;;4986784;28;20558;-51
2022/06/05 04:56:29;;;;;;;16.05;10.45;;;16.80;99.90;;;;;;4988740;28;20119;-52
2022/06/05 04:58:56;;;;;;;14.00;9.77;;;16.90;99.90;;;;;;4989278;28;20546;-52
2022/06/05 05:01:27;;;;;;;17.85;9.48;;;16.90;99.90;;;;;;4982772;28;20213;-51
2022/06/05 05:03:58;;;;;;;12.27;9.30;;;17.00;99.90;;;;;;4986705;28;20804;-52
2022/06/05 05:06:27;;;;;;;10.98;8.52;;;17.10;99.90;;;;;;4971162;28;20554;-52
2022/06/05 05:08:54;;;;;;;15.43;9.43;;;17.10;99.90;;;;;;4985289;28;20707;-50
2022/06/05 05:11:22;;;;;;;13.35;9.02;;;17.20;99.90;;;;;;4986472;28;20534;-52
2022/06/05 05:13:51;;;;;;;13.90;8.68;;;17.30;99.90;;;;;;4988361;28;20893;-52
2022/06/05 05:16:18;;;;;;;10.90;8.35;;;17.40;99.90;;;;;;4990979;28;20237;-51
2022/06/05 05:18:45;;;;;;;12.52;8.27;;;17.50;99.90;;;;;;4992261;28;20052;-51
2022/06/05 05:21:16;;;;;;;14.32;7.70;;;17.50;99.90;;;;;;4988674;28;20589;-52
2022/06/05 05:23:44;;;;;;;8.10;7.30;;;17.70;99.90;;;;;;4966270;28;20037;-51
2022/06/05 05:26:17;;;;;;;12.98;8.07;;;17.70;99.90;;;;;;4973819;28;20945;-52
2022/06/05 05:28:45;;;;;;;10.70;7.88;;;17.80;99.90;;;;;;4971850;28;20038;-52
2022/06/05 05:31:17;;;;;;;10.70;8.13;;;17.80;99.90;;;;;;4984955;28;20041;-53
2022/06/05 05:33:47;;;;;;;7.22;6.10;;;17.90;99.90;;;;;;4967706;28;20073;-53
2022/06/05 05:36:14;;;;;;;16.27;9.10;;;18.00;99.90;;;;;;4971190;28;20064;-52
2022/06/05 05:42:04;;;;;;;14.02;6.65;;;18.00;99.90;;;;;;4973843;28;20263;-64
2022/06/05 05:44:14;;;;;;;11.32;7.57;;;18.20;99.90;;;;;;4986290;28;20230;-53
2022/06/05 05:46:42;;;;;;;11.70;6.63;;;18.30;99.90;;;;;;4988620;28;20566;-51
2022/06/05 05:49:11;;;;;;;9.35;7.03;;;18.30;99.90;;;;;;4987677;28;20147;-51
2022/06/05 05:51:38;;;;;;;10.02;6.60;;;18.40;99.90;;;;;;4987370;28;20047;-53
2022/06/05 05:54:06;;;;;;;10.80;7.10;;;18.40;99.90;;;;;;4991046;28;20056;-50
2022/06/05 05:56:33;;;;;;;6.70;5.35;;;18.50;99.90;;;;;;4989049;28;20051;-52
2022/06/05 05:59:00;;;;;;;8.93;6.40;;;18.60;99.90;;;;;;4992744;28;20037;-52
2022/06/05 06:01:28;;;;;;;9.80;7.05;;;18.60;99.90;;;;;;4987852;28;20037;-53
2022/06/05 06:03:55;;;;;;;7.70;6.82;;;18.70;99.90;;;;;;4990883;28;20126;-51
2022/06/05 06:06:26;;;;;;;10.50;6.70;;;18.70;99.90;;;;;;4990008;28;20557;-52
2022/06/05 06:08:53;;;;;;;9.68;6.65;;;18.80;99.90;;;;;;4983821;28;20543;-51
2022/06/05 06:11:21;;;;;;;8.18;5.82;;;18.90;99.90;;;;;;4988704;28;20601;-49
2022/06/05 06:13:48;;;;;;;6.43;5.80;;;19.00;99.90;;;;;;4987422;28;20049;-52
2022/06/05 06:16:15;;;;;;;7.60;6.88;;;19.10;99.90;;;;;;4988032;28;20052;-52
2022/06/05 06:18:42;;;;;;;11.13;6.65;;;19.10;99.90;;;;;;4987711;28;20140;-53
2022/06/05 06:21:10;;;;;;;5.82;5.32;;;19.20;99.90;;;;;;4989948;28;20061;-52
2022/06/05 06:23:37;;;;;;;5.80;5.30;;;19.30;99.90;;;;;;4971911;28;20025;-51
2022/06/05 06:26:06;;;;;;;10.60;5.57;;;19.30;99.90;;;;;;4988007;28;20047;-49
2022/06/05 06:28:33;;;;;;;9.23;5.72;;;19.40;99.90;;;;;;4991657;28;20036;-50
2022/06/05 06:31:09;;;;;;;7.32;4.97;;;19.40;99.90;;;;;;4990074;28;20296;-52
2022/06/05 06:33:37;;;;;;;8.27;6.53;;;19.50;99.90;;;;;;4990755;28;20566;-51
2022/06/05 06:36:07;;;;;;;6.93;5.65;;;19.50;99.90;;;;;;4984415;28;20849;-52
2022/06/05 06:38:55;;;;;;;9.38;6.22;;;19.60;99.90;;;;;;4988092;28;20553;-53
2022/06/05 06:41:22;;;;;;;7.68;5.40;;;19.60;99.90;;;;;;4985101;28;20040;-51
2022/06/05 06:43:50;;;;;;;6.07;5.47;;;19.70;99.90;;;;;;4986015;28;20648;-52
2022/06/05 06:46:18;;;;;;;10.40;6.13;;;19.70;99.90;;;;;;4984823;28;20043;-52
2022/06/05 06:48:46;;;;;;;8.00;6.22;;;19.90;99.90;;;;;;4983552;28;20219;-50
2022/06/05 06:51:15;;;;;;;6.05;5.43;;;20.00;99.90;;;;;;4984229;28;20152;-51
2022/06/05 06:53:43;;;;;;;6.95;6.03;;;20.10;99.90;;;;;;4985482;28;20041;-51
2022/06/05 06:56:17;;;;;;;7.35;5.35;;;20.20;99.90;;;;;;4992004;28;20582;-52
2022/06/05 06:58:50;;;;;;;5.93;5.18;;;20.30;99.90;;;;;;4987592;28;20839;-51
2022/06/05 07:01:17;;;;;;;6.38;5.68;;;20.40;99.90;;;;;;4988873;28;20080;-53
2022/06/05 07:03:44;;;;;;;7.03;5.60;;;20.50;99.90;;;;;;4983533;28;20049;-52
2022/06/05 07:06:13;;;;;;;6.38;5.78;;;20.60;99.90;;;;;;4989414;28;20139;-52
2022/06/05 07:08:43;;;;;;;6.80;5.60;;;20.60;99.90;;;;;;4989160;28;20126;-52
2022/06/05 07:11:12;;;;;;;9.23;5.88;;;20.70;99.90;;;;;;4987633;28;20547;-52
2022/06/05 07:13:46;;;;;;;8.90;5.80;;;20.70;99.90;;;;;;4990668;28;20837;-52
2022/06/05 07:16:13;;;;;;;7.15;5.10;;;20.70;99.90;;;;;;4984497;28;20040;-51
2022/06/05 07:18:41;;;;;;;8.80;5.47;;;20.70;99.90;;;;;;4990683;28;20102;-52
2022/06/05 07:21:18;;;;;;;7.35;5.18;;;20.80;99.90;;;;;;4988405;28;20551;-51
2022/06/05 07:23:45;;;;;;;4.50;4.10;;;20.80;99.90;;;;;;4979024;28;20044;-52
2022/06/05 07:26:15;;;;;;;6.88;4.88;;;20.90;99.90;;;;;;4974481;28;20045;-52
2022/06/05 07:28:42;;;;;;;8.93;6.32;;;21.00;99.90;;;;;;4968079;28;20092;-52
2022/06/05 07:31:11;;;;;;;9.35;5.93;;;21.10;99.90;;;;;;4963910;28;20049;-51
2022/06/05 07:33:41;;;;;;;5.53;5.00;;;21.10;99.90;;;;;;4964464;28;20488;-50
2022/06/05 07:36:11;;;;;;;8.93;5.90;;;21.20;99.90;;;;;;4964295;28;20144;-52
2022/06/05 07:38:40;;;;;;;8.23;5.93;;;21.30;99.90;;;;;;4973788;28;20558;-52
2022/06/05 07:41:18;;;;;;;9.82;5.70;;;21.40;99.90;;;;;;4989223;28;20543;-51
2022/06/05 07:43:46;;;;;;;6.07;4.82;;;21.40;99.90;;;;;;4985942;28;20033;-55
2022/06/05 07:46:13;;;;;;;5.25;4.75;;;21.30;99.90;;;;;;4986027;28;20033;-59
2022/06/05 07:48:41;;;;;;;7.53;5.32;;;21.30;99.90;;;;;;4966446;28;20056;-54
2022/06/05 07:56:46;;;;;;;7.50;4.55;;;21.20;99.90;;;;;;4965811;28;20649;-55
2022/06/05 07:59:13;;;;;;;5.63;4.68;;;21.20;99.90;;;;;;4966504;28;20138;-55
2022/06/05 08:02:01;;;;;;;5.65;4.20;;;21.30;99.90;;;;;;4967880;28;20278;-55
2022/06/05 08:04:28;;;;;;;7.20;4.43;;;21.40;99.90;;;;;;4969662;28;20048;-55
2022/06/05 08:06:57;;;;;;;5.95;4.90;;;21.50;99.90;;;;;;4967000;28;20041;-55
2022/06/05 08:09:26;;;;;;;7.88;5.32;;;21.60;99.90;;;;;;4966367;28;20144;-55
2022/06/05 08:11:53;;;;;;;5.78;4.40;;;21.70;99.90;;;;;;4976886;28;20067;-55
2022/06/05 08:14:21;;;;;;;7.40;4.65;;;21.90;99.90;;;;;;4967185;28;20053;-54
2022/06/05 08:16:49;;;;;;;4.63;4.22;;;22.00;99.90;;;;;;4985400;28;20578;-55
2022/06/05 08:19:21;;;;;;;5.38;4.25;;;22.20;99.90;;;;;;4983029;28;20048;-55
2022/06/05 08:21:51;;;;;;;3.92;3.50;;;22.30;99.90;;;;;;4988646;28;20718;-55
2022/06/05 08:24:19;;;;;;;6.55;4.43;;;22.30;99.90;;;;;;4977527;28;20361;-54
2022/06/05 08:26:46;;;;;;;10.27;5.07;;;22.50;99.90;;;;;;4967859;28;21003;-57
2022/06/05 08:29:14;;;;;;;6.85;5.07;;;22.60;99.90;;;;;;4982318;28;20195;-56
2022/06/05 08:31:41;;;;;;;11.82;4.90;;;22.70;99.90;;;;;;4969240;28;20045;-58
2022/06/05 08:34:10;;;;;;;9.35;5.00;;;22.70;99.90;;;;;;4967576;28;20838;-57
2022/06/05 08:36:37;;;;;;;9.63;4.80;;;22.80;99.90;;;;;;4969200;28;20140;-58
2022/06/05 08:42:12;;;;;;;5.32;4.03;;;23.30;99.90;;;;;;4986586;28;20041;-59
2022/06/05 08:44:57;;;;;;;7.63;4.43;;;23.60;99.90;;;;;;4985106;28;20137;-57
2022/06/05 08:47:29;;;;;;;9.23;4.43;;;24.00;99.90;;;;;;4991180;28;20049;-58
2022/06/05 08:50:21;;;;;;;6.47;4.15;;;24.30;99.90;;;;;;4985750;28;20854;-61
2022/06/05 08:52:55;;;;;;;8.07;4.20;;;24.50;99.90;;;;;;4974686;28;20040;-57
2022/06/05 08:55:38;;;;;;;6.40;4.22;;;24.60;99.90;;;;;;4973213;28;20482;-57
2022/06/05 08:58:31;;;;;;;7.78;5.30;;;24.80;99.90;;;;;;4966774;28;20593;-58
2022/06/05 09:01:10;;;;;;;6.82;4.90;;;24.90;99.90;;;;;;4973632;28;20042;-57
2022/06/05 09:03:48;;;;;;;7.10;4.90;;;25.10;99.90;;;;;;4965987;28;20747;-59
2022/06/05 09:06:39;;;;;;;8.35;4.30;;;25.30;99.90;;;;;;4969621;28;20306;-58
2022/06/05 09:09:15;;;;;;;9.10;4.57;;;25.50;99.90;;;;;;4966300;28;20038;-56
2022/06/05 09:11:51;;;;;;;7.15;4.32;;;25.80;99.90;;;;;;4983463;28;20828;-56
2022/06/05 09:14:55;;;;;;;11.80;5.03;;;26.00;99.90;;;;;;4989068;28;20044;-58
2022/06/05 09:17:22;;;;;;;6.38;4.32;;;26.30;99.90;;;;;;4992046;28;20305;-57
2022/06/05 09:19:51;;;;;;;10.95;4.28;;;26.50;99.90;;;;;;4988921;28;20041;-57
2022/06/05 09:22:44;;;;;;;6.60;4.57;;;26.70;99.90;;;;;;4993154;28;20041;-56
2022/06/05 09:25:27;;;;;;;8.63;4.47;;;26.80;99.90;;;;;;4987530;28;20515;-62
2022/06/05 09:28:03;;;;;;;8.02;4.20;;;26.80;99.90;;;;;;4983796;28;20050;-61
2022/06/05 09:30:52;;;;;;;5.82;3.90;;;26.60;99.90;;;;;;4978074;28;20263;-62
2022/06/05 09:33:30;;;;;;;7.57;3.95;;;26.20;99.90;;;;;;4968446;28;20375;-61
2022/06/05 09:36:06;;;;;;;12.07;4.63;;;26.00;99.90;;;;;;4970116;28;20053;-61
2022/06/05 09:38:49;;;;;;;13.55;4.18;;;25.70;99.90;;;;;;4982781;28;20056;-61
2022/06/05 09:41:30;;;;;;;8.25;4.20;;;25.40;99.90;;;;;;4988969;28;20527;-62
2022/06/05 09:44:20;;;;;;;6.10;4.22;;;25.30;99.90;;;;;;4991124;28;20041;-57
2022/06/05 09:47:06;;;;;;;11.60;4.50;;;25.10;99.90;;;;;;4957295;28;20349;-57
2022/06/05 09:49:38;;;;;;;5.90;3.90;;;24.90;99.90;;;;;;4990801;28;20048;-57
2022/06/05 09:52:16;;;;;;;6.80;4.25;;;24.70;99.90;;;;;;4988300;28;20032;-57
2022/06/05 09:54:52;;;;;;;9.65;4.60;;;24.60;99.90;;;;;;4991289;28;20473;-57
2022/06/05 10:00:45;;;;;;;9.45;4.55;;;24.40;99.90;;;;;;4987229;28;20052;-58
2022/06/05 10:03:15;;;;;;;7.28;4.18;;;24.20;99.90;;;;;;4986320;28;20045;-58
2022/06/05 10:06:03;;;;;;;12.65;4.63;;;24.10;99.90;;;;;;4993417;28;20037;-57
2022/06/05 10:08:44;;;;;;;6.13;3.97;;;24.00;99.90;;;;;;4986923;28;20439;-56
2022/06/05 10:11:38;;;;;;;6.35;4.45;;;23.90;99.90;;;;;;4990219;28;20056;-57
2022/06/05 10:14:21;;;;;;;6.40;3.83;;;23.80;99.90;;;;;;4989850;28;20542;-57
2022/06/05 10:17:06;;;;;;;9.77;4.97;;;23.70;99.90;;;;;;4989120;28;20045;-57
2022/06/05 10:19:52;;;;;;;7.55;4.30;;;23.60;99.90;;;;;;4986919;28;20155;-57
2022/06/05 10:23:01;;;;;;;7.53;3.75;;;23.40;99.90;;;;;;4984881;28;20033;-57
2022/06/05 10:25:39;;;;;;;6.78;4.13;;;23.40;99.90;;;;;;4966054;28;20064;-57
2022/06/05 10:28:15;;;;;;;8.80;4.07;;;23.30;99.90;;;;;;4970001;28;20770;-58
2022/06/05 10:31:06;;;;;;;12.98;4.85;;;23.10;99.90;;;;;;4970374;28;20041;-59
2022/06/05 10:33:39;;;;;;;5.43;4.05;;;23.00;99.90;;;;;;4967444;28;20033;-57
2022/06/05 10:36:22;;;;;;;8.43;3.97;;;23.00;99.90;;;;;;4971798;28;20064;-57
2022/06/05 10:39:06;;;;;;;11.18;4.40;;;22.80;99.90;;;;;;4965555;28;20846;-54
2022/06/05 10:41:51;;;;;;;4.63;3.30;;;22.70;99.90;;;;;;4980278;28;20037;-55
2022/06/05 10:44:53;;;;;;;5.22;3.78;;;22.70;99.90;;;;;;4989157;28;20201;-55
2022/06/05 10:47:40;;;;;;;8.30;4.55;;;22.60;99.90;;;;;;4977415;28;20055;-55
2022/06/05 10:50:10;;;;;;;12.43;4.43;;;22.60;99.90;;;;;;4989641;28;20041;-54
2022/06/05 10:52:56;;;;;;;6.40;3.75;;;22.60;99.90;;;;;;4990541;28;20033;-54
2022/06/05 10:55:48;;;;;;;5.15;3.75;;;22.60;99.90;;;;;;4990225;28;20045;-54
2022/06/05 10:58:19;;;;;;;9.15;3.78;;;22.70;99.90;;;;;;4989908;28;20207;-55
2022/06/05 11:00:49;;;;;;;6.78;3.70;;;22.90;99.90;;;;;;4987269;28;20056;-56
2022/06/05 11:03:44;;;;;;;6.93;4.03;;;23.10;99.90;;;;;;4985224;28;20915;-55
2022/06/05 11:06:25;;;;;;;8.82;3.50;;;23.30;99.90;;;;;;4986090;28;20040;-55
2022/06/05 11:09:01;;;;;;;6.82;3.25;;;23.60;99.90;;;;;;4985180;28;20052;-55
2022/06/05 11:14:48;;;;;;;7.40;3.58;;;23.90;99.90;;;;;;4991103;28;20120;-57
2022/06/05 11:17:31;;;;;;;7.80;3.60;;;24.00;99.90;;;;;;4986953;28;20044;-56
2022/06/05 11:20:21;;;;;;;6.00;4.00;;;24.10;99.90;;;;;;4988650;28;20805;-58
2022/06/05 11:23:06;;;;;;;4.68;3.20;;;24.10;99.90;;;;;;4981719;28;20053;-56
2022/06/05 11:25:55;;;;;;;4.93;3.53;;;24.10;99.90;;;;;;4987324;28;20387;-57
2022/06/05 11:29:00;;;;;;;7.78;3.38;;;24.00;99.90;;;;;;4968625;28;20584;-58
2022/06/05 11:31:52;;;;;;;8.05;3.30;;;23.80;99.90;;;;;;4963776;28;20953;-56
2022/06/05 11:34:56;;;;;;;7.43;2.97;;;23.70;99.90;;;;;;4963598;28;20042;-56
2022/06/05 11:37:36;;;;;;;7.30;4.18;;;23.40;99.90;;;;;;4963599;28;20072;-57
2022/06/05 11:40:27;;;;;;;5.97;3.72;;;23.30;99.90;;;;;;4969065;28;20046;-58
2022/06/05 11:43:09;;;;;;;6.75;3.85;;;23.10;99.90;;;;;;4986216;28;20579;-57
2022/06/05 11:45:44;;;;;;;8.02;3.67;;;22.90;99.90;;;;;;4986117;28;20570;-57
2022/06/05 11:48:32;;;;;;;5.80;4.22;;;22.70;99.90;;;;;;4988005;28;20135;-56
2022/06/05 11:51:10;;;;;;;11.93;4.28;;;22.50;99.90;;;;;;4984126;28;20072;-56
2022/06/05 11:53:59;;;;;;;4.40;4.00;;;22.30;99.90;;;;;;4987494;28;20041;-56
2022/06/05 11:57:03;;;;;;;8.18;4.72;;;22.00;99.90;;;;;;4987218;28;20033;-56
2022/06/05 11:59:48;;;;;;;24.95;6.55;;;21.80;99.90;;;;;;4987229;28;20073;-55
2022/06/05 12:02:38;;;;;;;11.27;7.07;;;21.40;99.90;;;;;;4986984;28;20918;-55
2022/06/05 12:05:15;;;;;;;21.40;13.77;;;20.80;99.90;;;;;;4989186;28;20048;-54
2022/06/05 12:07:46;;;;;;;12.68;6.95;;;20.40;99.90;;;;;;4984011;28;20045;-65
2022/06/05 12:10:35;;;;;;;24.63;7.47;;;19.90;99.90;;;;;;4988908;28;20037;-54
2022/06/05 12:13:20;;;;;;;25.95;6.57;;;19.40;99.90;;;;;;4990620;28;20048;-52
2022/06/05 12:16:29;;;;;;;15.63;7.88;;;19.10;99.90;;;;;;4989367;28;20582;-55
2022/06/05 12:19:24;;;;;;;15.23;9.85;;;18.80;99.90;;;;;;4903641;28;20053;-56
2022/06/05 12:22:01;;;;;;;24.35;8.30;;;18.60;99.90;;;;;;4894755;28;20074;-55
2022/06/05 12:24:59;;;;;;;14.40;6.60;;;18.40;99.90;;;;;;4959898;28;20135;-53
2022/06/05 12:27:42;;;;;;;10.73;5.35;;;18.20;99.90;;;;;;4989153;28;20140;-53
2022/06/05 12:30:38;;;;;;;15.98;6.75;;;18.10;99.90;;;;;;4972396;28;20181;-52
2022/06/05 12:33:31;;;;;;;15.18;9.98;;;18.00;99.90;;;;;;4984090;28;20260;-54
2022/06/05 12:36:30;;;;;;;14.43;8.07;;;17.90;99.90;;;;;;4971095;28;20037;-52
2022/06/05 12:39:11;;;;;;;9.48;5.78;;;17.80;99.90;;;;;;4956565;28;20053;-53
2022/06/05 12:41:57;;;;;;;12.98;5.70;;;17.70;99.90;;;;;;4981123;28;20255;-54
2022/06/05 12:44:28;;;;;;;9.15;5.07;;;17.60;99.90;;;;;;4987941;28;20547;-55
2022/06/05 12:47:10;;;;;;;8.43;4.95;;;17.60;99.90;;;;;;4986419;28;20064;-56
2022/06/05 12:49:56;;;;;;;15.05;8.88;;;17.50;99.90;;;;;;4987651;28;20037;-56
2022/06/05 12:52:29;;;;;;;8.50;6.80;;;17.50;99.90;;;;;;4971539;28;20088;-54
2022/06/05 12:55:35;;;;;;;8.63;5.82;;;17.40;99.90;;;;;;4987314;28;20387;-55
2022/06/05 12:58:10;;;;;;;6.15;3.53;;;17.40;99.90;;;;;;4927683;28;20540;-54
2022/06/05 13:00:54;;;;;;;6.90;4.05;;;17.30;99.90;;;;;;4985827;28;20063;-54
2022/06/05 13:03:33;;;;;;;10.50;3.67;;;17.10;99.90;;;;;;4991080;28;20562;-55
2022/06/05 13:06:23;;;;;;;12.48;4.28;;;17.00;99.90;;;;;;4993534;28;20348;-53
2022/06/05 13:08:55;;;;;;;4.93;2.97;;;16.90;99.90;;;;;;4989047;28;20064;-54
2022/06/05 13:11:30;;;;;;;7.47;2.88;;;16.90;99.90;;;;;;4992928;28;20550;-54
2022/06/05 13:14:25;;;;;;;6.38;2.92;;;16.70;99.90;;;;;;4987338;28;20144;-55
2022/06/05 13:16:55;;;;;;;8.82;3.03;;;16.70;99.90;;;;;;4991461;28;20029;-55
2022/06/05 13:19:32;;;;;;;7.82;3.00;;;16.60;99.90;;;;;;4992124;28;20120;-55
2022/06/05 13:22:05;;;;;;;;;;;16.50;99.90;;;;;;4989561;28;20029;-55
2022/06/05 13:25:02;;;;;;;6.15;2.80;;;16.50;99.90;;;;;;4990868;28;19921;-55
2022/06/05 13:27:45;;;;;;;14.63;3.42;;;16.40;99.90;;;;;;4989430;28;20552;-55
2022/06/05 13:30:17;;;;;;;6.82;2.85;;;16.30;99.90;;;;;;4979600;28;20820;-56
2022/06/05 13:32:47;;;;;;;10.65;3.90;;;16.10;99.90;;;;;;4970816;28;20123;-55
2022/06/05 13:35:48;;;;;;;12.73;3.15;;;16.10;99.90;;;;;;4970690;28;20049;-55
2022/06/05 13:38:44;;;;;;;10.73;3.00;;;16.00;99.90;;;;;;4966711;28;20575;-55
2022/06/05 13:41:19;;;;;;;9.52;3.88;;;15.90;99.90;;;;;;4976752;28;20128;-53
2022/06/05 13:43:49;;;;;;;13.75;4.03;;;15.90;99.90;;;;;;4984264;28;20128;-53
2022/06/05 13:46:48;;;;;;;10.65;3.20;;;15.80;99.90;;;;;;4991765;28;20033;-52
2022/06/05 13:49:16;;;;;;;7.07;2.95;;;15.80;99.90;;;;;;4977357;28;20041;-54